• Join FlightAware (Why Join?)
  • Login
  • US Flag 
07:53PM EDT


 

Airport Tracker/Info


-or-


 

Live Flight TrackerFlight Track Log ✈ N99910 ✈ 02-Oct-2013 ✈ KTYS - KMRT

Flight Track Log - Related Links

Times and Time Zones

All times are in EDT time to prevent confusion due to time zone crossing. See the N99910 flight status page for this flight to view local times or setup timezone preferences in your user account.

Time Position Orientation Groundspeed Altitude Reporting Facility
EDT Latitude Longitude Course Direction KTS MPH feet Rate Location/Type
08:59PM 35.8261 -83.9906 323° Northwest 150 173 1,900  Level Indianapolis Center
09:00PM 35.8450 -84.0081 323° Northwest 99 114 2,700 660 Climbing Indianapolis Center
09:01PM 35.8656 -84.0281 322° Northwest 94 108 3,300 600 Climbing Indianapolis Center
09:02PM 35.8919 -84.0278 360° North 92 106 4,000 720 Climbing Indianapolis Center
09:03PM 35.9225 -84.0217 North 93 107 4,800 540 Climbing Indianapolis Center
09:04PM 35.9503 -84.0181 North 97 112 5,100 300 Climbing Indianapolis Center
09:05PM 35.9858 -84.0122 North 118 136 5,500 420 Climbing Indianapolis Center
09:06PM 36.0131 -84.0092 North 109 125 6,000 240 Climbing Indianapolis Center
09:07PM 36.0439 -84.0042 North 109 125 6,100  Climbing Indianapolis Center
09:08PM 36.0800 -83.9975 North 124 143 6,100  Level Indianapolis Center
09:09PM 36.1167 -83.9950 North 144 166 6,100  Level Atlanta Center
09:10PM 36.1522 -83.9897 North 132 152 6,100  Level Atlanta Center
09:11PM 36.1875 -83.9872 North 126 145 6,100 -60 Level Atlanta Center
09:12PM 36.2231 -83.9822 North 126 145 6,000  Descending Atlanta Center
09:13PM 36.2692 -83.9703 12° North 131 151 6,100  Climbing Indianapolis Center
09:14PM 36.3053 -83.9650 North 130 150 6,100  Level Indianapolis Center
09:15PM 36.3406 -83.9578 North 130 150 6,100 -60 Level Indianapolis Center
09:17PM 36.3786 -83.9517 North 134 154 6,000 -60 Descending Indianapolis Center
09:18PM 36.4164 -83.9467 North 136 157 6,000  Level Indianapolis Center
09:19PM 36.4522 -83.9408 North 132 152 6,000  Level Indianapolis Center
09:20PM 36.4894 -83.9353 North 134 154 6,000  Level Indianapolis Center
09:21PM 36.5314 -83.9306 North 134 154 6,100  Climbing Indianapolis Center
09:22PM 36.5681 -83.9236 North 133 153 6,100  Level Indianapolis Center
09:23PM 36.6053 -83.9189 North 134 154 6,100  Level Indianapolis Center
09:24PM 36.6442 -83.9128 North 138 159 6,100  Level Indianapolis Center
09:25PM 36.6808 -83.9067 North 136 157 6,100  Level Indianapolis Center
09:26PM 36.7178 -83.9008 North 134 154 6,100 -60 Level Indianapolis Center
09:27PM 36.7550 -83.8961 North 133 153 6,000 -60 Descending Indianapolis Center
09:28PM 36.7986 -83.8892 North 135 155 6,000  Level Indianapolis Center
09:29PM 36.8369 -83.8833 North 137 158 6,000  Level Indianapolis Center
09:30PM 36.8733 -83.8778 North 134 154 6,000  Level Indianapolis Center
09:31PM 36.9100 -83.8719 North 133 153 6,000  Level Indianapolis Center
09:32PM 36.9469 -83.8667 North 133 153 6,000  Level Indianapolis Center
09:33PM 36.9833 -83.8611 North 132 152 6,000  Level Indianapolis Center
09:34PM 37.0222 -83.8564 North 137 158 6,100  Climbing Indianapolis Center
09:35PM 37.0592 -83.8492 North 135 155 6,100  Level Indianapolis Center
09:36PM 37.0967 -83.8439 North 135 155 6,100  Level Indianapolis Center
09:37PM 37.1414 -83.8378 North 138 159 6,100  Level Indianapolis Center
09:38PM 37.1786 -83.8314 North 136 157 6,100  Level Indianapolis Center
09:39PM 37.2158 -83.8258 North 135 155 6,100 -60 Level Indianapolis Center
09:40PM 37.2539 -83.8197 North 136 157 6,000  Descending Indianapolis Center
09:41PM 37.2919 -83.8144 North 136 157 6,100  Climbing Indianapolis Center
09:42PM 37.3300 -83.8086 North 137 158 6,000  Descending Indianapolis Center
09:43PM 37.3686 -83.8028 North 138 159 6,100  Climbing Indianapolis Center
09:44PM 37.4064 -83.7975 North 138 159 6,000  Descending Indianapolis Center
09:45PM 37.4433 -83.7906 North 136 157 6,100  Climbing Indianapolis Center
09:46PM 37.4822 -83.7856 North 138 159 6,100  Level Indianapolis Center
09:47PM 37.5272 -83.7786 North 138 159 6,100  Level Indianapolis Center
09:48PM 37.5658 -83.7725 North 139 160 6,100  Level Indianapolis Center
09:49PM 37.6039 -83.7672 North 138 159 6,100  Level Indianapolis Center
09:50PM 37.6428 -83.7600 North 140 161 6,100  Level Indianapolis Center
09:51PM 37.6808 -83.7542 North 138 159 6,100  Level Indianapolis Center
09:52PM 37.7183 -83.7486 North 136 157 6,100  Level Indianapolis Center
09:53PM 37.7581 -83.7428 North 141 162 6,100  Level Indianapolis Center
09:54PM 37.7961 -83.7369 North 139 160 6,100  Level Indianapolis Center
09:55PM 37.8347 -83.7317 North 139 160 6,100 -60 Level Indianapolis Center
09:56PM 37.8728 -83.7258 North 139 160 6,000  Descending Indianapolis Center
09:57PM 37.9172 -83.7183 North 138 159 6,100  Climbing Indianapolis Center
09:58PM 37.9553 -83.7125 North 137 158 6,100  Level Indianapolis Center
09:59PM 37.9939 -83.7056 North 138 159 6,100 -60 Level Indianapolis Center
10:00PM 38.0325 -83.6986 North 139 160 6,000  Descending Indianapolis Center
10:01PM 38.0711 -83.6931 North 139 160 6,100  Climbing Indianapolis Center
10:02PM 38.1094 -83.6867 North 139 160 6,000 -60 Descending Indianapolis Center
10:03PM 38.1492 -83.6806 North 142 163 6,000  Level Indianapolis Center
10:05PM 38.1878 -83.6761 North 141 162 6,100  Climbing Indianapolis Center
10:06PM 38.2269 -83.6675 10° North 141 162 6,000 -60 Descending Indianapolis Center
10:07PM 38.2661 -83.6614 North 141 162 6,000  Level Indianapolis Center
10:08PM 38.3053 -83.6553 North 141 162 6,100  Climbing Indianapolis Center
10:09PM 38.3517 -83.6489 North 143 165 6,100  Level Indianapolis Center
10:10PM 38.3900 -83.6431 North 139 160 6,100  Level Indianapolis Center
10:11PM 38.4297 -83.6364 North 142 163 6,100  Level Indianapolis Center
10:12PM 38.4681 -83.6311 North 139 160 6,100  Level Indianapolis Center
10:13PM 38.5078 -83.6250 North 142 163 6,100  Level Indianapolis Center
10:14PM 38.5472 -83.6175 North 142 163 6,100  Level Indianapolis Center
10:15PM 38.5864 -83.6117 North 142 163 6,100  Level Indianapolis Center
10:16PM 38.6253 -83.6050 North 141 162 6,100 -60 Level Indianapolis Center
10:17PM 38.6636 -83.6011 North 140 161 6,000 -60 Descending Indianapolis Center
10:18PM 38.7036 -83.5944 North 144 166 6,000  Level Indianapolis Center
10:19PM 38.7422 -83.5886 North 141 162 6,000  Level Indianapolis Center
10:20PM 38.7811 -83.5825 North 141 162 6,000  Level Indianapolis Center
10:21PM 38.8192 -83.5747 North 139 160 6,000  Level Indianapolis Center
10:22PM 38.8575 -83.5689 North 139 160 6,000  Level Indianapolis Center
10:23PM 38.9044 -83.5600 North 142 163 6,000  Level Indianapolis Center
10:24PM 38.9433 -83.5556 North 141 162 6,000  Level Indianapolis Center
10:25PM 38.9831 -83.5489 North 143 165 6,000  Level Indianapolis Center
10:26PM 39.0222 -83.5425 North 139 160 6,000  Level Indianapolis Center
10:27PM 39.0603 -83.5369 North 142 163 6,000  Level Indianapolis Center
10:28PM 39.0986 -83.5311 North 138 159 6,000  Level Indianapolis Center
10:29PM 39.1381 -83.5242 North 142 163 6,000  Level Indianapolis Center
10:29PM 39.1433 -83.5247 355° North 139 160 6,000  Level Indianapolis Center
10:30PM 39.1733 -83.5189 North 140 161 6,000  Level Indianapolis Center
10:30PM 39.1767 -83.5186 North 142 163 6,000  Level Indianapolis Center
10:31PM 39.2139 -83.5119 North 141 162 6,000  Level Indianapolis Center
10:31PM 39.2153 -83.5117 North 140 161 6,000  Level Indianapolis Center
10:32PM 39.2522 -83.5078 North 140 161 6,000 -120 Level Indianapolis Center
10:32PM 39.2542 -83.5061 34° Northeast 140 161 5,900 -120 Descending Indianapolis Center
10:33PM 39.2931 -83.4983 North 140 161 5,900 60 Level Indianapolis Center
10:33PM 39.2928 -83.4994 252° West 141 162 6,000 60 Climbing Indianapolis Center
10:34PM 39.3317 -83.4925 North 141 162 6,000  Level Indianapolis Center
10:35PM 39.3722 -83.4869 North 141 162 6,000  Level Indianapolis Center
10:35PM 39.3708 -83.4858 148° Southeast 141 162 6,000 -120 Level Indianapolis Center
10:36PM 39.4178 -83.4800 North 142 163 5,900 -300 Descending Indianapolis Center
10:37PM 39.4583 -83.4728 North 144 166 5,400 -540 Descending Indianapolis Center
10:38PM 39.5028 -83.4653 North 152 175 4,900 -540 Descending Indianapolis Center
10:38PM 39.5047 -83.4658 348° North 154 177 4,900 -480 Level Indianapolis Center
10:39PM 39.5386 -83.4606 North 155 178 4,500 -540 Descending Indianapolis Center
10:39PM 39.5447 -83.4583 16° North 153 176 4,400 -540 Descending Indianapolis Center
10:40PM 39.5814 -83.4542 North 153 176 4,000 -420 Descending Indianapolis Center
10:40PM 39.5867 -83.4517 20° North 153 176 4,000 -180 Level Indianapolis Center
10:41PM 39.6286 -83.4456 North 151 174 3,800 -240 Descending Indianapolis Center
10:41PM 39.6292 -83.4444 57° Northeast 153 176 3,800 -420 Level Indianapolis Center
10:42PM 39.6722 -83.4378 North 155 178 3,400 -480 Descending Indianapolis Center
10:43PM 39.7119 -83.4325 North 155 178 3,000 -420 Descending Indianapolis Center
10:43PM 39.7142 -83.4306 34° Northeast 154 177 3,000  Level Indianapolis Center
10:44PM 39.7525 -83.4256 North 147 169 3,000  Level Indianapolis Center
10:44PM 39.7542 -83.4258 353° North 150 173 3,000  Level Indianapolis Center
10:45PM 39.7928 -83.4214 North 147 169 3,000  Level Indianapolis Center
10:45PM 39.7939 -83.4211 11° North 147 169 3,000  Level Indianapolis Center
10:46PM 39.8314 -83.4142 North 144 166 3,000  Level Indianapolis Center
10:46PM 39.8397 -83.4131 North 143 165 3,000  Level Indianapolis Center
10:47PM 39.8700 -83.4069 North 139 160 3,000  Level Indianapolis Center
10:47PM 39.8781 -83.4069 360° North 142 163 3,000  Level Indianapolis Center
10:48PM 39.9125 -83.4006 North 146 168 3,000  Level Indianapolis Center
10:48PM 39.9175 -83.4000 North 143 165 3,000  Level Indianapolis Center
10:49PM 39.9622 -83.3931 North 143 165 3,000  Level Indianapolis Center